Time;durP1;ratioP1;P1;durP2;ratioP2;P2;SDS_P1;SDS_P2;PMS_P1;PMS_P2;Temp;Humidity;BMP_temperature;BMP_pressure;BME280_temperature;BME280_humidity;BME280_pressure;Samples;Min_cycle;Max_cycle;Signal;HPM_P1;HPM_P2
2024/02/08 00:02:18;;;;;;;10.98;9.45;;;;;;;28.60;62.81;101111.81;5038852;28;69745;-35
2024/02/08 00:04:49;;;;;;;15.77;14.60;;;;;;;28.67;65.92;101123.47;5039926;28;66389;-35
2024/02/08 00:07:20;;;;;;;;;;;;;;;28.64;69.30;101129.25;5038303;28;70244;-34
2024/02/08 00:09:51;;;;;;;14.80;13.75;;;;;;;28.69;67.46;101127.63;5038101;28;67027;-34
2024/02/08 00:12:23;;;;;;;16.45;15.20;;;;;;;28.71;69.35;101124.72;5037785;28;69097;-35
2024/02/08 00:14:54;;;;;;;19.92;16.00;;;;;;;28.73;70.38;101133.47;5040748;28;66278;-36
2024/02/08 00:17:24;;;;;;;17.75;16.15;;;;;;;28.84;72.37;101123.97;5041279;28;70548;-35
2024/02/08 00:19:55;;;;;;;18.13;16.48;;;;;;;28.76;70.41;101110.66;5036573;28;66697;-35
2024/02/08 00:22:26;;;;;;;20.25;15.25;;;;;;;28.92;71.27;101143.53;5041504;28;71543;-36
2024/02/08 00:24:57;;;;;;;21.17;18.27;;;;;;;28.86;75.30;101135.38;5040163;28;66698;-35
2024/02/08 00:27:27;;;;;;;20.23;18.65;;;;;;;28.91;74.64;101147.25;5040100;28;70064;-37
2024/02/08 00:30:01;;;;;;;21.73;19.65;;;;;;;28.92;76.60;101154.34;5040370;28;66267;-35
2024/02/08 00:32:34;;;;;;;21.92;19.80;;;;;;;28.94;77.11;101146.03;5040739;28;70223;-35
2024/02/08 00:35:05;;;;;;;20.90;19.30;;;;;;;28.92;76.75;101159.75;5029728;28;66351;-36
2024/02/08 00:37:40;;;;;;;23.20;20.92;;;;;;;28.98;78.75;101162.69;5041638;28;70609;-37
2024/02/08 00:40:11;;;;;;;23.15;20.98;;;;;;;29.00;78.76;101155.19;5042905;28;66736;-35
2024/02/08 00:42:42;;;;;;;24.40;22.10;;;;;;;29.05;79.67;101164.38;5043612;28;69910;-35
2024/02/08 00:45:21;;;;;;;26.80;23.63;;;;;;;29.06;79.12;101170.63;5043324;28;65101;-35
2024/02/08 00:47:57;;;;;;;25.60;23.23;;;;;;;29.10;78.86;101171.88;5042690;28;70363;-35
2024/02/08 00:50:28;;;;;;;25.33;23.10;;;;;;;29.12;79.19;101172.53;5043526;28;66314;-35
2024/02/08 00:53:00;;;;;;;25.48;23.17;;;;;;;29.13;80.79;101185.00;5041343;28;69686;-36
2024/02/08 00:55:30;;;;;;;;;;;;;;;29.04;82.52;101181.63;5031641;28;66517;-35
2024/02/08 00:58:02;;;;;;;24.20;22.08;;;;;;;29.14;79.16;101181.25;5035478;28;70423;-35
2024/02/08 01:00:37;;;;;;;24.58;22.20;;;;;;;29.18;81.49;101196.03;5043356;28;66503;-36
2024/02/08 01:03:08;;;;;;;24.75;22.45;;;;;;;29.20;80.76;101203.91;5043554;28;69738;-34
2024/02/08 01:05:38;;;;;;;25.88;21.75;;;;;;;29.19;81.21;101211.19;5039497;28;65752;-36
2024/02/08 01:08:09;;;;;;;25.63;21.65;;;;;;;29.25;80.96;101220.38;5042407;28;69525;-36
2024/02/08 01:10:40;;;;;;;24.55;22.15;;;;;;;29.27;80.88;101226.41;5042583;28;65416;-36
2024/02/08 01:13:11;;;;;;;26.90;24.33;;;;;;;29.26;80.92;101228.28;5041418;28;70603;-35
2024/02/08 01:15:42;;;;;;;31.10;26.88;;;;;;;29.28;81.14;101228.91;5043039;28;66808;-36
2024/02/08 01:18:13;;;;;;;33.80;27.75;;;;;;;29.32;81.12;101234.75;5041427;28;69480;-35
2024/02/08 01:20:44;;;;;;;33.47;27.03;;;;;;;29.30;81.69;101240.34;5041912;28;66473;-35
2024/02/08 01:23:17;;;;;;;39.40;27.92;;;;;;;29.34;79.84;101244.31;5042775;28;70523;-36
2024/02/08 01:25:47;;;;;;;30.65;26.23;;;;;;;29.31;81.04;101252.84;5043162;28;66450;-35
2024/02/08 01:28:18;;;;;;;27.40;24.48;;;;;;;29.40;80.27;101259.72;5041703;28;70398;-35
2024/02/08 01:30:48;;;;;;;28.05;24.63;;;;;;;29.40;81.65;101262.44;5043196;28;66282;-35
2024/02/08 01:33:19;;;;;;;33.47;26.73;;;;;;;29.38;81.57;101267.19;5030397;28;71496;-36
2024/02/08 01:35:51;;;;;;;31.55;27.20;;;;;;;29.45;81.40;101271.78;5042763;28;66442;-36
2024/02/08 01:38:23;;;;;;;37.85;28.95;;;;;;;29.48;82.00;101276.81;5042285;28;70254;-35
2024/02/08 01:40:55;;;;;;;36.58;28.42;;;;;;;29.48;81.11;101274.94;5041155;28;65726;-36
2024/02/08 01:43:25;;;;;;;32.20;27.90;;;;;;;29.48;82.67;101276.81;5041480;28;69594;-36
2024/02/08 01:45:57;;;;;;;32.38;26.83;;;;;;;29.51;83.25;101276.41;5040913;28;66115;-36
2024/02/08 01:48:29;;;;;;;30.23;25.73;;;;;;;29.50;83.47;101280.97;5028842;28;70838;-35
2024/02/08 01:51:04;;;;;;;26.17;23.75;;;;;;;29.23;82.65;101225.16;5040837;28;66652;-36
2024/02/08 01:53:35;;;;;;;24.80;22.40;;;;;;;29.55;82.26;101283.06;5040863;28;70425;-36
2024/02/08 01:56:06;;;;;;;25.02;22.30;;;;;;;29.51;82.28;101281.81;5039226;28;66315;-36
2024/02/08 01:58:43;;;;;;;27.47;22.80;;;;;;;29.32;84.05;101268.00;5039906;28;69447;-36
2024/02/08 02:01:22;;;;;;;24.70;22.10;;;;;;;29.56;83.22;101303.66;5042023;28;65861;-36
2024/02/08 02:03:53;;;;;;;32.83;24.20;;;;;;;29.60;82.18;101304.94;5037314;28;69640;-36
2024/02/08 02:06:24;;;;;;;28.63;24.27;;;;;;;29.62;83.83;101305.56;5040614;28;66488;-36
2024/02/08 02:08:58;;;;;;;34.58;23.70;;;;;;;29.68;82.80;101310.19;5038639;28;70474;-35
2024/02/08 02:11:51;;;;;;;25.50;22.85;;;;;;;29.67;84.93;101310.38;5041241;28;66697;-36
2024/02/08 02:14:29;;;;;;;24.30;21.48;;;;;;;29.43;83.74;101263.06;5030593;28;70426;-36
2024/02/08 02:17:15;;;;;;;24.38;21.08;;;;;;;29.56;85.31;101299.09;5039500;28;66046;-36
2024/02/08 02:19:46;;;;;;;25.65;21.02;;;;;;;29.71;83.54;101331.41;5040244;28;70425;-36
2024/02/08 02:22:19;;;;;;;23.60;19.10;;;;;;;29.72;83.54;101332.25;5039036;28;66301;-36
2024/02/08 02:24:49;;;;;;;;;;;;;;;29.70;85.69;101328.91;5038578;28;69630;-34
2024/02/08 02:27:19;;;;;;;25.10;20.35;;;;;;;29.78;83.16;101326.88;5040521;28;66909;-36
2024/02/08 02:29:53;;;;;;;30.67;20.50;;;;;;;29.76;83.37;101325.41;5038599;28;69546;-35
2024/02/08 02:32:29;;;;;;;25.05;19.45;;;;;;;29.82;83.72;101322.72;5037103;28;66077;-36
2024/02/08 02:35:01;;;;;;;23.42;18.27;;;;;;;29.85;83.66;101321.50;5037108;28;69377;-36
2024/02/08 02:37:33;;;;;;;25.13;17.45;;;;;;;29.83;83.15;101327.09;5035797;28;65930;-35
2024/02/08 02:40:06;;;;;;;21.55;18.00;;;;;;;29.86;83.31;101322.31;5035229;28;70123;-36
2024/02/08 02:42:37;;;;;;;18.38;16.73;;;;;;;29.87;82.91;101324.84;5035967;28;66083;-36
2024/02/08 02:45:13;;;;;;;18.77;16.92;;;;;;;29.91;82.40;101330.66;5029691;28;70318;-35
2024/02/08 02:47:45;;;;;;;19.65;17.90;;;;;;;29.91;82.51;101326.06;5040252;28;65738;-35
2024/02/08 02:50:19;;;;;;;17.88;16.25;;;;;;;29.91;82.43;101330.66;5041200;28;70441;-36
2024/02/08 02:52:51;;;;;;;17.88;16.08;;;;;;;29.92;82.01;101316.09;5039595;28;67095;-35
2024/02/08 02:55:22;;;;;;;24.63;18.35;;;;;;;29.94;81.00;101324.84;5040635;28;70750;-36
2024/02/08 02:57:57;;;;;;;22.67;19.88;;;;;;;30.00;81.48;101324.03;5041170;28;65047;-36
2024/02/08 03:00:33;;;;;;;32.95;23.70;;;;;;;30.01;81.01;101320.28;5038235;28;70210;-37
2024/02/08 03:03:12;;;;;;;30.52;21.85;;;;;;;30.06;81.39;101315.09;5038213;28;65769;-36
2024/02/08 03:05:46;;;;;;;30.30;24.23;;;;;;;30.07;81.42;101311.34;5039094;28;70562;-35
2024/02/08 03:08:19;;;;;;;51.65;31.08;;;;;;;30.06;81.74;101309.66;5038142;28;65260;-36
2024/02/08 03:10:49;;;;;;;43.35;27.88;;;;;;;30.10;81.87;101308.25;5039635;28;70012;-36
2024/02/08 03:13:20;;;;;;;33.55;24.55;;;;;;;30.13;82.08;101312.41;5020730;28;66033;-37
2024/02/08 03:15:52;;;;;;;39.92;25.27;;;;;;;30.15;82.42;101304.94;5037156;28;69898;-36
2024/02/08 03:18:23;;;;;;;34.28;23.40;;;;;;;30.16;82.45;101312.81;5034205;28;66709;-37
2024/02/08 03:20:53;;;;;;;27.25;21.20;;;;;;;30.19;82.10;101315.13;5037158;28;69725;-35
2024/02/08 03:23:25;;;;;;;25.83;19.45;;;;;;;30.22;81.97;101298.50;5039314;28;65158;-36
2024/02/08 03:25:56;;;;;;;27.30;19.42;;;;;;;30.23;81.83;101308.31;5039097;28;69863;-36
2024/02/08 03:28:28;;;;;;;22.75;17.90;;;;;;;30.23;81.83;101302.88;5041464;28;65870;-37
2024/02/08 03:30:59;;;;;;;18.92;17.25;;;;;;;30.28;81.62;101300.41;5041205;28;69724;-37
2024/02/08 03:33:29;;;;;;;17.10;15.35;;;;;;;30.33;80.34;101302.47;5038938;28;65752;-35
2024/02/08 03:36:06;;;;;;;17.13;15.43;;;;;;;30.31;80.55;101298.31;5041489;28;71458;-35
2024/02/08 03:38:37;;;;;;;17.40;15.70;;;;;;;30.36;79.55;101298.53;5041146;28;65651;-35
2024/02/08 03:41:08;;;;;;;21.20;17.70;;;;;;;30.36;79.63;101290.41;5041261;28;70565;-36
2024/02/08 03:43:38;;;;;;;24.70;17.92;;;;;;;30.38;78.88;101293.75;5041663;28;66601;-35
2024/02/08 03:46:10;;;;;;;23.30;17.92;;;;;;;30.39;79.53;101298.09;5041372;28;69240;-36
2024/02/08 03:48:45;;;;;;;24.70;17.30;;;;;;;30.43;78.86;101292.09;5040441;28;66097;-36
2024/02/08 03:51:17;;;;;;;31.17;16.25;;;;;;;30.46;78.45;101286.25;5039573;28;69780;-36
2024/02/08 03:53:48;;;;;;;16.45;15.13;;;;;;;30.47;79.08;101292.50;5040437;28;66364;-35
2024/02/08 03:56:26;;;;;;;20.50;15.65;;;;;;;30.48;78.44;101288.75;5033058;28;69738;-35
2024/02/08 03:59:07;;;;;;;18.50;16.95;;;;;;;30.52;77.23;101290.00;5035252;28;65789;-38
2024/02/08 04:01:43;;;;;;;18.60;16.60;;;;;;;30.54;77.44;101290.63;5035049;28;69437;-36
2024/02/08 04:04:15;;;;;;;20.05;18.08;;;;;;;30.58;77.16;101288.31;5041326;28;66406;-35
2024/02/08 04:07:14;;;;;;;27.75;19.10;;;;;;;30.60;76.74;101281.66;5040312;28;69976;-35
2024/02/08 04:09:55;;;;;;;22.48;20.15;;;;;;;30.63;77.10;101270.41;5040085;28;65623;-36
2024/02/08 04:54:53;;;;;;;25.05;21.60;;;;;;;31.00;76.03;101221.22;5036344;28;66249;-36
2024/02/08 04:57:25;;;;;;;25.30;19.85;;;;;;;31.07;75.43;101217.44;5037019;28;70391;-36
2024/02/08 04:59:59;;;;;;;22.90;18.05;;;;;;;31.20;75.18;101213.00;5038978;28;65298;-35
2024/02/08 05:02:31;;;;;;;20.33;17.52;;;;;;;31.26;74.94;101214.84;5040595;28;69935;-35
2024/02/08 05:05:06;;;;;;;17.73;15.95;;;;;;;31.29;74.62;101209.03;5040511;28;66102;-35
2024/02/08 05:07:38;;;;;;;17.58;15.73;;;;;;;31.31;74.44;101201.50;5039842;28;70222;-34
2024/02/08 05:10:09;;;;;;;16.50;15.20;;;;;;;31.36;74.08;101199.00;5040868;28;65187;-35
2024/02/08 05:12:39;;;;;;;17.13;15.50;;;;;;;31.39;74.20;101201.28;5042484;28;70760;-35
2024/02/08 05:15:13;;;;;;;17.08;13.88;;;;;;;31.40;73.87;101194.81;5040639;28;65444;-35
2024/02/08 05:17:44;;;;;;;14.63;13.52;;;;;;;31.45;73.77;101203.13;5038753;28;69422;-36
2024/02/08 05:20:15;;;;;;;14.88;13.63;;;;;;;31.45;73.33;101184.13;5040824;28;67245;-35
2024/02/08 05:22:45;;;;;;;14.80;13.45;;;;;;;31.51;73.23;101194.13;5053771;28;70134;-35
2024/02/08 05:25:16;;;;;;;13.45;12.48;;;;;;;31.53;73.38;101178.47;5036474;28;66363;-35
2024/02/08 05:27:47;;;;;;;13.63;11.85;;;;;;;31.55;72.78;101176.38;5041407;28;69625;-35
2024/02/08 05:30:19;;;;;;;14.45;13.32;;;;;;;31.57;73.04;101174.28;5040618;28;66963;-35
2024/02/08 05:32:51;;;;;;;;;;;;;;;31.55;73.32;101170.13;5056487;28;70257;-36
2024/02/08 05:35:21;;;;;;;;;;;;;;;31.59;72.93;101161.34;5041387;28;65355;-36
2024/02/08 05:37:53;;;;;;;13.55;12.63;;;;;;;31.69;72.62;101160.03;5041088;28;70384;-35
2024/02/08 05:40:24;;;;;;;14.65;13.32;;;;;;;31.70;72.64;101148.13;5039794;28;65563;-35
2024/02/08 05:42:55;;;;;;;13.63;12.45;;;;;;;31.72;72.84;101143.31;5040201;28;70662;-35
2024/02/08 05:45:30;;;;;;;12.93;11.73;;;;;;;31.73;72.57;101144.97;5041802;28;65964;-35
2024/02/08 05:48:05;;;;;;;13.35;12.25;;;;;;;31.75;72.60;101138.25;5041749;28;70317;-35
2024/02/08 05:50:36;;;;;;;13.25;12.20;;;;;;;31.79;72.78;101131.38;5038972;28;65590;-36
2024/02/08 05:53:07;;;;;;;13.23;12.45;;;;;;;31.80;72.64;101119.44;5035532;28;69437;-35
2024/02/08 05:55:40;;;;;;;16.95;15.00;;;;;;;31.82;72.62;101111.94;5041604;28;67143;-35
2024/02/08 05:58:16;;;;;;;20.58;18.42;;;;;;;31.85;72.64;101105.22;5042054;28;70759;-35
2024/02/08 06:01:01;;;;;;;22.88;20.83;;;;;;;31.92;72.45;101106.03;5041094;28;65893;-35
2024/02/08 06:03:37;;;;;;;23.05;21.35;;;;;;;31.94;73.11;101106.63;5041997;28;70550;-36
2024/02/08 06:06:15;;;;;;;31.17;28.65;;;;;;;31.98;72.97;101099.72;5041756;28;66701;-35
2024/02/08 06:08:56;;;;;;;34.15;28.92;;;;;;;31.98;72.87;101094.31;5039784;28;70215;-35
2024/02/08 06:11:27;;;;;;;34.70;28.00;;;;;;;32.01;72.52;101093.00;5041504;28;66349;-36
2024/02/08 06:14:06;;;;;;;29.25;26.38;;;;;;;31.97;73.47;101087.19;5039567;28;69460;-35
2024/02/08 06:16:46;;;;;;;24.67;22.20;;;;;;;31.95;72.90;101083.88;5041499;28;66622;-34
2024/02/08 06:19:21;;;;;;;22.80;19.65;;;;;;;31.83;70.92;101081.03;5032135;28;70527;-34
2024/02/08 06:21:57;;;;;;;18.15;16.80;;;;;;;31.77;69.03;101067.53;5040036;28;66938;-34
2024/02/08 06:27:01;;;;;;;13.65;12.45;;;;;;;31.75;66.31;101067.75;5040595;28;65567;-35
2024/02/08 06:29:42;;;;;;;12.15;11.20;;;;;;;31.67;63.70;101056.34;5040078;28;70430;-35
2024/02/08 06:32:57;;;;;;;10.55;10.05;;;;;;;31.46;64.29;101020.44;5029590;28;66496;-34
2024/02/08 06:35:19;;;;;;;9.32;8.77;;;;;;;31.44;62.11;101025.25;5025275;28;69007;-35
2024/02/08 06:38:00;;;;;;;7.72;7.32;;;;;;;31.46;61.49;101036.72;5040205;28;66829;-35
2024/02/08 06:40:37;;;;;;;7.10;6.55;;;;;;;31.47;60.44;101032.94;5032586;28;70137;-35
2024/02/08 06:46:09;;;;;;;6.13;5.60;;;;;;;31.37;59.85;101019.03;5039105;28;70179;-35
2024/02/08 07:41:54;;;;;;;4.25;4.05;;;;;;;31.33;55.29;100944.63;5031588;28;70268;-35
2024/02/08 07:44:30;;;;;;;3.70;3.50;;;;;;;31.29;55.06;100946.94;5036736;28;66186;-36
2024/02/08 07:47:06;;;;;;;4.00;3.67;;;;;;;31.31;54.59;100944.00;5036844;28;69760;-35
2024/02/08 07:49:42;;;;;;;10.80;10.23;;;;;;;31.46;56.96;100941.81;5035573;28;66014;-35
2024/02/08 07:52:19;;;;;;;14.10;12.30;;;;;;;31.61;59.68;100936.88;5033749;28;69192;-35
2024/02/08 07:58:32;;;;;;;11.73;10.57;;;;;;;31.81;61.83;100936.66;5025998;28;70284;-34
2024/02/08 08:03:23;;;;;;;16.95;10.00;;;;;;;31.97;62.51;100918.97;5038971;28;70402;-35
2024/02/08 08:05:57;;;;;;;10.18;9.45;;;;;;;32.08;63.28;100930.13;5039727;28;66399;-36
2024/02/08 08:08:28;;;;;;;8.93;8.32;;;;;;;32.15;63.54;100925.44;5035414;28;69542;-35
2024/02/08 08:11:02;;;;;;;;;;;;;;;32.21;63.53;100925.38;5035155;28;66148;-35
2024/02/08 08:14:06;;;;;;;9.82;6.97;;;;;;;32.30;63.69;100928.59;5036672;28;71084;-35
2024/02/08 08:17:00;;;;;;;6.68;6.18;;;;;;;32.33;63.73;100928.13;5034938;28;66733;-35
2024/02/08 08:19:38;;;;;;;5.93;5.50;;;;;;;32.40;63.62;100928.91;5035197;28;70014;-36
2024/02/08 08:30:38;;;;;;;5.15;4.85;;;;;;;32.62;63.80;100907.50;5053393;28;70546;-35
2024/02/08 08:33:09;;;;;;;4.47;4.28;;;;;;;32.69;63.84;100910.13;5036953;28;66259;-35
2024/02/08 08:35:46;;;;;;;4.30;4.10;;;;;;;32.74;63.72;100904.00;5039441;28;70180;-36
2024/02/08 08:41:00;;;;;;;4.53;4.30;;;;;;;32.83;63.74;100908.84;5040869;28;69627;-34
2024/02/08 08:43:35;;;;;;;4.75;4.45;;;;;;;32.87;63.81;100910.03;5042430;28;64926;-35
2024/02/08 08:46:10;;;;;;;4.07;3.88;;;;;;;32.91;63.86;100907.69;5041263;28;69957;-35
2024/02/08 08:48:50;;;;;;;4.95;4.60;;;;;;;32.96;63.80;100909.69;5042796;28;66808;-35
2024/02/08 08:51:30;;;;;;;4.18;3.97;;;;;;;33.03;63.58;100905.03;5042930;28;70563;-35
2024/02/08 08:54:13;;;;;;;4.65;4.45;;;;;;;33.08;63.81;100902.44;5042484;28;65821;-36
2024/02/08 08:56:49;;;;;;;9.50;8.80;;;;;;;33.10;63.58;100905.75;5042016;28;69884;-46
2024/02/08 08:59:19;;;;;;;16.77;14.65;;;;;;;33.16;63.45;100910.25;5040632;28;65770;-34
2024/02/08 09:01:50;;;;;;;20.95;15.15;;;;;;;33.18;63.70;100908.09;5042044;28;69181;-36
2024/02/08 09:04:32;;;;;;;15.07;13.52;;;;;;;33.21;63.59;100913.09;5036072;28;67053;-36
2024/02/08 09:07:12;;;;;;;14.65;13.18;;;;;;;33.23;63.77;100908.22;5041935;28;70410;-35
2024/02/08 09:10:03;;;;;;;11.80;10.80;;;;;;;33.28;63.66;100919.22;5041425;28;65930;-36
2024/02/08 09:12:39;;;;;;;11.82;10.73;;;;;;;33.32;63.87;100925.84;5042873;28;70392;-35
2024/02/08 09:15:26;;;;;;;10.18;9.25;;;;;;;33.34;63.72;100918.25;5041453;28;66673;-36
2024/02/08 09:17:58;;;;;;;8.70;8.20;;;;;;;33.40;63.65;100921.09;5041693;28;70581;-36
2024/02/08 09:20:29;;;;;;;8.07;7.57;;;;;;;33.40;63.77;100911.06;5039084;28;66123;-35
2024/02/08 09:23:12;;;;;;;7.68;7.18;;;;;;;33.47;63.54;100916.38;5041510;28;69774;-36
2024/02/08 09:25:47;;;;;;;7.40;6.90;;;;;;;33.47;63.47;100917.22;5040895;28;66692;-37
2024/02/08 09:28:23;;;;;;;7.03;6.53;;;;;;;33.56;63.59;100920.44;5039141;28;69603;-36
2024/02/08 09:30:57;;;;;;;6.13;5.72;;;;;;;33.59;63.67;100928.94;5041115;28;65896;-35
2024/02/08 09:33:30;;;;;;;7.15;6.55;;;;;;;33.46;63.66;100912.00;5034111;28;70322;-34
2024/02/08 09:36:03;;;;;;;8.52;6.22;;;;;;;33.64;63.48;100932.84;5041829;28;66947;-35
2024/02/08 09:38:42;;;;;;;6.22;5.63;;;;;;;33.65;63.54;100929.88;5039601;28;69647;-35
2024/02/08 09:41:24;;;;;;;6.40;5.80;;;;;;;33.57;63.11;100911.19;5042420;28;66188;-35
2024/02/08 09:44:05;;;;;;;7.95;5.53;;;;;;;33.68;63.40;100931.28;5039189;28;69131;-34
2024/02/08 09:49:17;;;;;;;5.25;4.75;;;;;;;33.72;63.53;100930.59;5036422;28;70438;-35
2024/02/08 09:51:52;;;;;;;4.82;4.53;;;;;;;33.74;63.60;100943.94;5032239;28;66570;-37
2024/02/08 09:54:31;;;;;;;4.50;4.22;;;;;;;33.76;63.32;100944.53;5038083;28;70322;-35
2024/02/08 09:57:22;;;;;;;4.53;4.22;;;;;;;33.80;63.64;100957.44;5039696;28;66872;-34
2024/02/08 09:59:59;;;;;;;6.53;3.92;;;;;;;33.79;63.70;100946.78;5033197;28;70473;-35
2024/02/08 10:02:53;;;;;;;4.45;4.15;;;;;;;33.83;63.76;100947.13;5040166;28;66512;-35
2024/02/08 10:08:27;;;;;;;4.55;4.15;;;;;;;33.76;64.20;100948.06;5039269;28;66557;-35
2024/02/08 10:13:55;;;;;;;4.00;3.63;;;;;;;33.78;63.97;100958.72;5036926;28;64884;-35
2024/02/08 10:16:47;;;;;;;5.38;5.03;;;;;;;33.81;64.13;100967.22;5040349;28;70998;-35
2024/02/08 10:22:26;;;;;;;5.95;5.55;;;;;;;33.78;64.49;100940.50;5039236;28;70667;-35
2024/02/08 10:27:22;;;;;;;;;;;;;;;33.68;64.74;100951.16;5030935;28;70470;-35
2024/02/08 10:30:05;;;;;;;5.32;4.57;;;;;;;33.74;64.45;100961.09;5037866;28;67830;-35
2024/02/08 10:32:37;;;;;;;4.70;4.30;;;;;;;33.76;65.10;100964.41;5039718;28;69924;-35
2024/02/08 10:35:19;;;;;;;4.82;4.22;;;;;;;33.71;65.13;100972.47;5039548;28;66490;-36
2024/02/08 10:38:09;;;;;;;4.95;4.47;;;;;;;33.70;65.26;100959.91;5037377;28;69833;-36
2024/02/08 10:40:40;;;;;;;5.65;4.13;;;;;;;33.75;65.10;100968.19;5037684;28;66562;-35
2024/02/08 10:43:24;;;;;;;5.60;5.20;;;;;;;33.74;65.41;100965.69;5039195;28;70298;-34
2024/02/08 10:46:02;;;;;;;5.13;4.68;;;;;;;33.68;65.22;100964.75;5037078;28;65830;-35
2024/02/08 10:48:33;;;;;;;4.28;3.97;;;;;;;33.70;65.33;100965.34;5038385;28;70385;-35
2024/02/08 10:51:11;;;;;;;5.85;4.80;;;;;;;33.72;65.27;100984.16;5042289;28;65958;-35
2024/02/08 10:53:48;;;;;;;4.75;4.55;;;;;;;33.73;65.33;100975.75;5041030;28;70474;-37
2024/02/08 10:56:40;;;;;;;5.50;5.10;;;;;;;33.55;65.41;100954.13;5037706;28;66671;-36
2024/02/08 10:59:14;;;;;;;5.38;4.97;;;;;;;33.67;65.77;100982.16;5037458;28;70458;-35
2024/02/08 11:04:21;;;;;;;5.57;5.18;;;;;;;33.65;65.78;100988.88;5035448;28;70034;-35
2024/02/08 11:07:17;;;;;;;6.20;5.70;;;;;;;33.64;66.02;100982.63;5036586;28;65736;-35
2024/02/08 11:09:48;;;;;;;6.57;4.72;;;;;;;33.63;66.08;100991.88;5051373;28;69491;-36
2024/02/08 11:12:29;;;;;;;5.55;5.05;;;;;;;33.58;66.20;100986.31;5038296;28;66439;-36
2024/02/08 11:15:16;;;;;;;4.82;4.53;;;;;;;33.37;66.74;100955.84;5038616;28;69827;-36
2024/02/08 11:17:51;;;;;;;5.38;4.88;;;;;;;33.56;66.30;100985.69;5037210;28;66004;-36
2024/02/08 11:20:44;;;;;;;7.47;4.65;;;;;;;33.54;66.45;100976.94;5038645;28;69823;-35
2024/02/08 11:23:23;;;;;;;5.22;4.90;;;;;;;33.52;66.17;100981.78;5034390;28;66471;-35
2024/02/08 11:25:56;;;;;;;6.68;4.75;;;;;;;33.55;66.39;100984.06;5035249;28;70274;-34
2024/02/08 11:28:28;;;;;;;4.78;4.28;;;;;;;33.42;66.31;100962.50;5040286;28;66036;-34
2024/02/08 11:31:04;;;;;;;4.18;3.92;;;;;;;33.52;66.25;100979.06;5038569;28;70108;-35
2024/02/08 11:33:40;;;;;;;4.93;4.57;;;;;;;33.52;66.26;100989.94;5036940;28;66459;-35
2024/02/08 11:36:13;;;;;;;4.45;4.05;;;;;;;33.48;66.80;100994.19;5033736;28;70457;-34
2024/02/08 11:38:57;;;;;;;4.80;4.38;;;;;;;33.40;66.14;100992.63;5039424;28;65903;-35
2024/02/08 11:41:31;;;;;;;4.60;4.20;;;;;;;33.38;66.77;101002.94;5039619;28;69748;-34
2024/02/08 11:44:03;;;;;;;4.45;4.15;;;;;;;33.39;66.51;100996.41;5033572;28;66236;-36
2024/02/08 11:46:45;;;;;;;4.13;3.72;;;;;;;33.35;66.47;101006.13;5040927;28;70503;-37
2024/02/08 11:49:31;;;;;;;3.70;3.50;;;;;;;33.32;66.72;101007.41;5037190;28;66030;-34
2024/02/08 11:52:07;;;;;;;3.92;3.63;;;;;;;33.32;66.85;101012.00;5036482;28;70364;-35
2024/02/08 11:54:38;;;;;;;6.32;5.68;;;;;;;33.19;68.16;101015.78;5035215;28;66222;-36
2024/02/08 11:57:11;;;;;;;7.05;6.55;;;;;;;33.15;68.94;101011.84;5037476;28;69494;-36
2024/02/08 11:59:46;;;;;;;7.22;6.72;;;;;;;33.06;69.13;101013.25;5036389;28;66690;-36
2024/02/08 12:02:18;;;;;;;11.05;6.30;;;;;;;33.02;69.13;101012.06;5036304;28;70664;-35
2024/02/08 12:04:52;;;;;;;6.35;5.93;;;;;;;32.87;69.49;100999.69;5036609;28;65130;-34
2024/02/08 12:07:23;;;;;;;6.30;5.88;;;;;;;32.93;69.74;101025.97;5036386;28;69658;-35
2024/02/08 12:10:09;;;;;;;5.00;4.70;;;;;;;32.90;70.52;101042.72;5036546;28;65169;-36
2024/02/08 12:12:41;;;;;;;5.65;4.95;;;;;;;32.86;70.27;101038.78;5037070;28;70278;-36
2024/02/08 12:15:13;;;;;;;4.95;4.65;;;;;;;32.85;70.14;101048.00;5036386;28;65436;-35
2024/02/08 12:17:52;;;;;;;4.60;4.30;;;;;;;32.81;70.45;101054.94;5036466;28;69779;-35
2024/02/08 12:20:24;;;;;;;7.00;4.38;;;;;;;32.82;70.65;101062.06;5035725;28;65259;-35
2024/02/08 12:22:55;;;;;;;4.50;4.20;;;;;;;32.76;71.09;101048.56;5035088;28;70107;-35
2024/02/08 12:25:27;;;;;;;4.40;4.10;;;;;;;32.73;71.26;101057.97;5035891;28;65502;-33
2024/02/08 12:28:09;;;;;;;5.47;5.07;;;;;;;32.72;71.71;101056.34;5034545;28;69526;-34
2024/02/08 12:30:40;;;;;;;;;;;;;;;32.55;71.67;101060.75;5036727;28;66253;-35
2024/02/08 12:33:13;;;;;;;4.72;4.32;;;;;;;32.61;71.35;101055.22;5035032;28;69747;-34
2024/02/08 12:35:44;;;;;;;5.35;3.90;;;;;;;32.63;70.68;101068.59;5039056;28;66658;-35
2024/02/08 12:38:17;;;;;;;6.22;4.20;;;;;;;32.62;70.43;101066.91;5041037;28;70356;-34
2024/02/08 12:40:49;;;;;;;4.45;4.15;;;;;;;32.34;68.73;101048.41;5039772;28;66567;-34
2024/02/08 12:43:20;;;;;;;3.90;3.60;;;;;;;32.40;66.63;101077.34;5039931;28;69939;-35
2024/02/08 12:45:54;;;;;;;4.13;3.72;;;;;;;32.23;64.27;101079.84;5040438;28;65587;-36
2024/02/08 12:48:29;;;;;;;3.35;3.03;;;;;;;32.19;64.18;101076.75;5040928;28;69805;-35
2024/02/08 12:51:03;;;;;;;3.40;3.10;;;;;;;32.12;62.81;101081.41;5040628;28;66704;-35
2024/02/08 12:53:34;;;;;;;3.22;2.92;;;;;;;32.00;61.55;101075.91;5039023;28;70384;-35
2024/02/08 12:56:10;;;;;;;6.53;2.80;;;;;;;31.84;60.19;101076.44;5040382;28;66332;-34
2024/02/08 12:58:45;;;;;;;3.15;2.95;;;;;;;31.65;60.66;101058.44;5039372;28;69138;-34
2024/02/08 13:01:18;;;;;;;3.92;3.60;;;;;;;31.70;60.16;101083.03;5038790;28;65742;-34
2024/02/08 13:03:55;;;;;;;4.25;3.78;;;;;;;31.64;60.81;101081.19;5027390;28;69505;-36
2024/02/08 13:06:27;;;;;;;5.22;4.80;;;;;;;31.60;61.22;101091.66;5039540;28;66190;-34
2024/02/08 13:09:25;;;;;;;4.35;4.05;;;;;;;31.51;60.18;101099.25;5037734;28;69374;-35
2024/02/08 13:12:19;;;;;;;6.68;3.72;;;;;;;31.47;57.97;101103.44;5035046;28;66013;-34
2024/02/08 13:14:50;;;;;;;4.22;3.58;;;;;;;31.46;59.77;101107.19;5039050;28;70282;-35
2024/02/08 13:17:24;;;;;;;6.57;3.38;;;;;;;31.47;58.39;101110.72;5039904;28;66640;-36
2024/02/08 13:19:55;;;;;;;3.03;2.80;;;;;;;31.34;57.90;101107.03;5040430;28;70649;-35
2024/02/08 13:22:33;;;;;;;9.23;3.33;;;;;;;31.09;58.13;101069.03;5039123;28;65781;-37
2024/02/08 13:25:28;;;;;;;3.35;3.13;;;;;;;31.25;57.38;101093.94;5042487;28;70360;-35
2024/02/08 13:27:58;;;;;;;4.35;3.20;;;;;;;31.24;56.98;101103.13;5041033;28;65948;-35
2024/02/08 13:30:32;;;;;;;7.20;2.92;;;;;;;31.19;56.76;101094.81;5043053;28;69994;-35
2024/02/08 13:33:05;;;;;;;3.45;3.15;;;;;;;31.19;57.44;101100.25;5042304;28;66800;-35
2024/02/08 13:35:40;;;;;;;7.82;3.65;;;;;;;31.12;57.76;101101.13;5042296;28;69828;-36
2024/02/08 13:38:11;;;;;;;6.97;3.25;;;;;;;31.05;56.96;101100.31;5041171;28;65710;-35
2024/02/08 13:40:43;;;;;;;14.93;3.27;;;;;;;31.04;56.82;101087.81;5042548;28;69236;-36
2024/02/08 13:43:16;;;;;;;2.88;2.67;;;;;;;30.98;56.71;101094.13;5042724;28;66333;-35
2024/02/08 13:45:47;;;;;;;3.05;2.85;;;;;;;30.97;56.67;101108.69;5036660;28;69596;-38
2024/02/08 13:48:20;;;;;;;10.32;2.63;;;;;;;30.89;56.65;101101.63;5045134;28;65870;-34
2024/02/08 13:50:53;;;;;;;3.00;2.63;;;;;;;30.78;55.31;101104.16;5027457;28;70186;-35
2024/02/08 13:53:28;;;;;;;7.60;2.33;;;;;;;30.77;56.31;101119.56;5032336;28;65484;-35
2024/02/08 13:55:58;;;;;;;3.78;2.13;;;;;;;30.77;55.75;101124.16;5041132;28;70015;-35
2024/02/08 13:58:30;;;;;;;6.53;2.38;;;;;;;30.67;55.46;101113.75;5042807;28;66563;-34
2024/02/08 14:01:01;;;;;;;11.73;3.23;;;;;;;30.71;56.81;101121.25;5041207;28;69262;-34
2024/02/08 14:03:34;;;;;;;3.28;2.97;;;;;;;30.58;56.59;101126.72;5042294;28;66277;-34
2024/02/08 14:06:09;;;;;;;2.95;2.75;;;;;;;30.60;56.00;101135.47;5037356;28;69228;-35
2024/02/08 14:08:46;;;;;;;11.25;4.97;;;;;;;30.57;58.32;101124.22;5029906;28;66233;-36
2024/02/08 14:11:20;;;;;;;8.80;5.53;;;;;;;30.58;59.75;101132.13;5042540;28;71358;-35